createdAt,value
2023-04-22T00:00:05.905Z,97281.00
2023-04-22T00:00:16.042Z,97281.00
2023-04-22T00:00:26.306Z,97283.00
2023-04-22T00:00:36.366Z,97285.00
2023-04-22T00:00:46.361Z,97283.00
2023-04-22T00:00:56.440Z,97283.00
2023-04-22T00:01:06.446Z,97283.00
2023-04-22T00:01:16.506Z,97285.00
2023-04-22T00:01:26.501Z,97283.00
2023-04-22T00:01:36.562Z,97287.00
2023-04-22T00:01:46.552Z,97285.00
2023-04-22T00:01:56.593Z,97285.00
2023-04-22T00:02:06.750Z,97285.00
2023-04-22T00:02:16.916Z,97285.00
2023-04-22T00:02:26.885Z,97285.00
2023-04-22T00:02:36.950Z,97283.00
2023-04-22T00:02:47.203Z,97285.00
2023-04-22T00:02:57.204Z,97287.00
2023-04-22T00:03:07.170Z,97285.00
2023-04-22T00:03:17.447Z,97285.00
2023-04-22T00:03:27.465Z,97289.00
2023-04-22T00:03:37.541Z,97287.00
2023-04-22T00:03:47.493Z,97285.00
2023-04-22T00:03:57.862Z,97287.00
2023-04-22T00:04:08.141Z,97287.00
2023-04-22T00:04:17.997Z,97287.00
2023-04-22T00:04:28.336Z,97289.00
2023-04-22T00:04:38.452Z,97289.00
2023-04-22T00:04:48.307Z,97285.00
2023-04-22T00:04:58.619Z,97285.00
2023-04-22T00:05:08.859Z,97289.00
2023-04-22T00:05:20.449Z,97289.00
2023-04-22T00:05:28.686Z,97287.00
2023-04-22T00:05:38.697Z,97287.00
2023-04-22T00:05:48.957Z,97287.00
2023-04-22T00:05:58.880Z,97291.00
2023-04-22T00:06:08.855Z,97287.00
2023-04-22T00:06:18.888Z,97289.00
2023-04-22T00:06:28.967Z,97289.00
2023-04-22T00:06:38.944Z,97287.00
2023-04-22T00:06:48.970Z,97291.00
2023-04-22T00:06:58.967Z,97289.00
2023-04-22T00:07:09.130Z,97291.00
2023-04-22T00:07:19.123Z,97291.00
2023-04-22T00:07:29.391Z,97289.00
2023-04-22T00:07:39.394Z,97293.00
2023-04-22T00:07:49.392Z,97291.00
2023-04-22T00:07:59.389Z,97291.00
2023-04-22T00:08:09.541Z,97291.00
2023-04-22T00:08:19.524Z,97293.00
2023-04-22T00:08:29.685Z,97291.00
2023-04-22T00:08:39.696Z,97291.00
2023-04-22T00:08:49.815Z,97291.00
2023-04-22T00:08:59.825Z,97291.00
2023-04-22T00:09:09.870Z,97293.00
2023-04-22T00:09:19.873Z,97291.00
2023-04-22T00:09:29.932Z,97293.00
2023-04-22T00:09:40.209Z,97291.00
2023-04-22T00:09:50.059Z,97295.00
2023-04-22T00:10:00.120Z,97293.00
2023-04-22T00:10:10.112Z,97295.00
2023-04-22T00:10:20.111Z,97295.00
2023-04-22T00:10:30.130Z,97297.00
2023-04-22T00:10:40.124Z,97295.00
2023-04-22T00:10:50.126Z,97295.00
2023-04-22T00:11:00.153Z,97295.00
2023-04-22T00:11:10.156Z,97295.00
2023-04-22T00:11:20.157Z,97295.00
2023-04-22T00:11:30.170Z,97295.00
2023-04-22T00:11:40.188Z,97295.00
2023-04-22T00:11:50.180Z,97295.00
2023-04-22T00:12:00.208Z,97295.00
2023-04-22T00:12:10.248Z,97297.00
2023-04-22T00:12:20.241Z,97297.00
2023-04-22T00:12:30.249Z,97295.00
2023-04-22T00:12:40.237Z,97297.00
2023-04-22T00:12:50.248Z,97295.00
2023-04-22T00:13:00.249Z,97299.00
2023-04-22T00:13:10.380Z,97299.00
2023-04-22T00:13:20.397Z,97297.00
2023-04-22T00:13:30.406Z,97297.00
2023-04-22T00:13:40.415Z,97297.00
2023-04-22T00:13:50.678Z,97299.00
2023-04-22T00:14:00.715Z,97299.00
2023-04-22T00:14:10.719Z,97299.00
2023-04-22T00:14:20.783Z,97301.00
2023-04-22T00:14:30.787Z,97301.00
2023-04-22T00:14:40.826Z,97299.00
2023-04-22T00:14:50.829Z,97299.00
2023-04-22T00:15:00.864Z,97295.00
2023-04-22T00:15:10.866Z,97297.00
2023-04-22T00:15:20.890Z,97297.00
2023-04-22T00:15:30.889Z,97299.00
2023-04-22T00:15:41.066Z,97299.00
2023-04-22T00:15:50.986Z,97297.00
2023-04-22T00:16:01.108Z,97295.00
2023-04-22T00:16:11.082Z,97299.00
2023-04-22T00:16:21.111Z,97297.00
2023-04-22T00:16:31.177Z,97297.00
2023-04-22T00:16:41.493Z,97297.00
2023-04-22T00:16:51.492Z,97297.00
2023-04-22T00:17:01.504Z,97297.00
2023-04-22T00:17:11.897Z,97297.00
2023-04-22T00:17:21.913Z,97297.00
2023-04-22T00:17:32.033Z,97295.00
2023-04-22T00:17:42.346Z,97295.00
2023-04-22T00:17:52.396Z,97295.00
2023-04-22T00:18:02.453Z,97297.00
2023-04-22T00:18:12.789Z,97295.00
2023-04-22T00:18:22.817Z,97295.00
2023-04-22T00:18:32.939Z,97293.00
2023-04-22T00:18:43.293Z,97293.00
2023-04-22T00:18:53.328Z,97293.00
2023-04-22T00:19:03.328Z,97293.00
2023-04-22T00:19:13.360Z,97295.00
2023-04-22T00:19:23.367Z,97295.00
2023-04-22T00:19:33.519Z,97295.00
2023-04-22T00:19:43.524Z,97295.00
2023-04-22T00:19:53.563Z,97295.00
2023-04-22T00:20:03.584Z,97297.00
2023-04-22T00:20:13.678Z,97295.00
2023-04-22T00:20:23.923Z,97297.00
2023-04-22T00:20:33.998Z,97295.00
2023-04-22T00:20:44.000Z,97297.00
2023-04-22T00:20:54.377Z,97295.00
2023-04-22T00:21:04.386Z,97295.00
2023-04-22T00:21:14.496Z,97293.00
2023-04-22T00:21:24.754Z,97293.00
2023-04-22T00:21:34.871Z,97295.00
2023-04-22T00:21:44.877Z,97295.00
2023-04-22T00:21:55.141Z,97293.00
2023-04-22T00:22:05.151Z,97293.00
2023-04-22T00:22:15.162Z,97291.00
2023-04-22T00:22:25.191Z,97293.00
2023-04-22T00:22:35.182Z,97293.00
2023-04-22T00:22:45.179Z,97293.00
2023-04-22T00:22:55.195Z,97289.00
2023-04-22T00:23:05.200Z,97289.00
2023-04-22T00:23:15.205Z,97291.00
2023-04-22T00:23:25.215Z,97291.00
2023-04-22T00:23:35.602Z,97291.00
2023-04-22T00:23:45.616Z,97289.00
2023-04-22T00:23:55.626Z,97289.00
2023-04-22T00:24:05.647Z,97291.00
2023-04-22T00:24:15.653Z,97287.00
2023-04-22T00:24:25.715Z,97289.00
2023-04-22T00:24:35.731Z,97293.00
2023-04-22T00:24:45.783Z,97289.00
2023-04-22T00:24:55.775Z,97289.00
2023-04-22T00:25:05.852Z,97287.00
2023-04-22T00:25:15.844Z,97291.00
2023-04-22T00:25:25.896Z,97287.00
2023-04-22T00:25:35.918Z,97287.00
2023-04-22T00:25:45.923Z,97287.00
2023-04-22T00:25:55.925Z,97287.00
2023-04-22T00:26:05.959Z,97291.00
2023-04-22T00:26:15.956Z,97291.00
2023-04-22T00:26:25.960Z,97287.00
2023-04-22T00:26:35.975Z,97287.00
2023-04-22T00:26:45.989Z,97287.00
2023-04-22T00:26:55.986Z,97289.00
2023-04-22T00:27:05.999Z,97289.00
2023-04-22T00:27:16.008Z,97287.00
2023-04-22T00:27:26.046Z,97289.00
2023-04-22T00:27:36.042Z,97285.00
2023-04-22T00:27:46.084Z,97287.00
2023-04-22T00:27:56.087Z,97287.00
2023-04-22T00:28:06.129Z,97285.00
2023-04-22T00:28:16.144Z,97285.00
2023-04-22T00:28:26.193Z,97283.00
2023-04-22T00:28:36.206Z,97285.00
2023-04-22T00:28:46.215Z,97281.00
2023-04-22T00:28:56.225Z,97283.00
2023-04-22T00:29:06.271Z,97285.00
2023-04-22T00:29:16.259Z,97281.00
2023-04-22T00:29:26.299Z,97283.00
2023-04-22T00:29:36.677Z,97283.00
2023-04-22T00:29:46.413Z,97285.00
2023-04-22T00:29:56.679Z,97285.00
2023-04-22T00:30:06.674Z,97283.00
2023-04-22T00:30:16.703Z,97283.00
2023-04-22T00:30:26.682Z,97287.00
2023-04-22T00:30:36.688Z,97285.00
2023-04-22T00:30:46.771Z,97287.00
2023-04-22T00:30:56.801Z,97285.00
2023-04-22T00:31:06.893Z,97287.00
2023-04-22T00:31:16.955Z,97285.00
2023-04-22T00:31:26.996Z,97285.00
2023-04-22T00:31:37.062Z,97285.00
2023-04-22T00:31:47.167Z,97285.00
2023-04-22T00:31:57.234Z,97281.00
2023-04-22T00:32:07.268Z,97285.00
2023-04-22T00:32:17.278Z,97285.00
2023-04-22T00:32:27.307Z,97283.00
2023-04-22T00:32:37.331Z,97287.00
2023-04-22T00:32:47.654Z,97289.00
2023-04-22T00:32:57.705Z,97287.00
2023-04-22T00:33:07.746Z,97285.00
2023-04-22T00:33:17.764Z,97287.00
2023-04-22T00:33:27.774Z,97285.00
2023-04-22T00:33:37.784Z,97283.00
2023-04-22T00:33:47.788Z,97285.00
2023-04-22T00:33:57.915Z,97283.00
2023-04-22T00:34:07.906Z,97285.00
2023-04-22T00:34:18.143Z,97287.00
2023-04-22T00:34:28.199Z,97285.00
2023-04-22T00:34:38.292Z,97283.00
2023-04-22T00:34:48.289Z,97283.00
2023-04-22T00:34:58.363Z,97283.00
2023-04-22T00:35:08.455Z,97283.00
2023-04-22T00:35:18.493Z,97283.00
2023-04-22T00:35:28.511Z,97283.00
2023-04-22T00:35:38.667Z,97283.00
2023-04-22T00:35:48.678Z,97283.00
2023-04-22T00:35:58.716Z,97283.00
2023-04-22T00:36:08.967Z,97283.00
2023-04-22T00:36:18.991Z,97285.00
2023-04-22T00:36:28.992Z,97281.00
2023-04-22T00:36:39.000Z,97283.00
2023-04-22T00:36:49.005Z,97281.00
2023-04-22T00:36:59.017Z,97283.00
2023-04-22T00:37:09.092Z,97283.00
2023-04-22T00:37:19.092Z,97283.00
2023-04-22T00:37:29.085Z,97283.00
2023-04-22T00:37:39.207Z,97283.00
2023-04-22T00:37:49.469Z,97283.00
2023-04-22T00:37:59.483Z,97281.00
2023-04-22T00:38:09.492Z,97285.00
2023-04-22T00:38:19.526Z,97283.00
2023-04-22T00:38:29.522Z,97283.00
2023-04-22T00:38:39.654Z,97283.00
2023-04-22T00:38:49.660Z,97283.00
2023-04-22T00:38:59.674Z,97279.00
2023-04-22T00:39:09.694Z,97283.00
2023-04-22T00:39:19.734Z,97283.00
2023-04-22T00:39:29.987Z,97283.00
2023-04-22T00:39:40.196Z,97283.00
2023-04-22T00:39:49.994Z,97281.00
2023-04-22T00:40:00.404Z,97283.00
2023-04-22T00:40:10.400Z,97281.00
2023-04-22T00:40:20.519Z,97283.00
2023-04-22T00:40:30.826Z,97283.00
2023-04-22T00:40:40.821Z,97283.00
2023-04-22T00:40:50.883Z,97283.00
2023-04-22T00:41:00.884Z,97285.00
2023-04-22T00:41:10.908Z,97283.00
2023-04-22T00:41:20.932Z,97281.00
2023-04-22T00:41:30.995Z,97283.00
2023-04-22T00:41:41.027Z,97285.00
2023-04-22T00:41:51.060Z,97281.00
2023-04-22T00:42:01.060Z,97285.00
2023-04-22T00:42:11.108Z,97281.00
2023-04-22T00:42:21.109Z,97283.00
2023-04-22T00:42:31.118Z,97281.00
2023-04-22T00:42:41.116Z,97281.00
2023-04-22T00:42:51.141Z,97283.00
2023-04-22T00:43:01.142Z,97281.00
2023-04-22T00:43:11.153Z,97281.00
2023-04-22T00:43:21.170Z,97281.00
2023-04-22T00:43:31.171Z,97283.00
2023-04-22T00:43:41.307Z,97283.00
2023-04-22T00:43:51.316Z,97283.00
2023-04-22T00:44:01.335Z,97283.00
2023-04-22T00:44:11.338Z,97281.00
2023-04-22T00:44:21.349Z,97281.00
2023-04-22T00:44:31.612Z,97283.00
2023-04-22T00:44:41.614Z,97281.00
2023-04-22T00:44:51.627Z,97283.00
2023-04-22T00:45:01.651Z,97283.00
2023-04-22T00:45:11.745Z,97281.00
2023-04-22T00:45:21.745Z,97279.00
2023-04-22T00:45:31.750Z,97279.00
2023-04-22T00:45:41.761Z,97278.00
2023-04-22T00:45:51.807Z,97278.00
2023-04-22T00:46:01.818Z,97278.00
2023-04-22T00:46:11.867Z,97278.00
2023-04-22T00:46:21.899Z,97279.00
2023-04-22T00:46:31.933Z,97279.00
2023-04-22T00:46:41.963Z,97279.00
2023-04-22T00:46:52.062Z,97279.00
2023-04-22T00:47:02.122Z,97278.00
2023-04-22T00:47:12.213Z,97283.00
2023-04-22T00:47:22.381Z,97281.00
2023-04-22T00:47:32.463Z,97281.00
2023-04-22T00:47:42.472Z,97279.00
2023-04-22T00:47:52.428Z,97279.00
2023-04-22T00:48:02.512Z,97279.00
2023-04-22T00:48:12.534Z,97281.00
2023-04-22T00:48:22.576Z,97279.00
2023-04-22T00:48:32.706Z,97279.00
2023-04-22T00:48:42.706Z,97281.00
2023-04-22T00:48:52.728Z,97281.00
2023-04-22T00:49:02.985Z,97279.00
2023-04-22T00:49:13.114Z,97283.00
2023-04-22T00:49:23.133Z,97283.00
2023-04-22T00:49:33.390Z,97281.00
2023-04-22T00:49:43.444Z,97281.00
2023-04-22T00:49:53.451Z,97279.00
2023-04-22T00:50:03.507Z,97281.00
2023-04-22T00:50:13.537Z,97283.00
2023-04-22T00:50:23.609Z,97279.00
2023-04-22T00:50:33.622Z,97281.00
2023-04-22T00:50:43.653Z,97281.00
2023-04-22T00:50:53.664Z,97279.00
2023-04-22T00:51:03.712Z,97278.00
2023-04-22T00:51:13.709Z,97278.00
2023-04-22T00:51:23.752Z,97281.00
2023-04-22T00:51:33.750Z,97279.00
2023-04-22T00:51:43.756Z,97278.00
2023-04-22T00:51:53.784Z,97278.00
2023-04-22T00:52:03.786Z,97281.00
2023-04-22T00:52:13.787Z,97278.00
2023-04-22T00:52:23.793Z,97279.00
2023-04-22T00:52:33.914Z,97276.00
2023-04-22T00:52:43.926Z,97279.00
2023-04-22T00:52:53.919Z,97274.00
2023-04-22T00:53:03.963Z,97272.00
2023-04-22T00:53:13.969Z,97274.00
2023-04-22T00:53:24.001Z,97276.00
2023-04-22T00:53:34.260Z,97272.00
2023-04-22T00:53:44.260Z,97272.00
2023-04-22T00:53:54.273Z,97270.00
2023-04-22T00:54:04.283Z,97274.00
2023-04-22T00:54:14.299Z,97274.00
2023-04-22T00:54:24.380Z,97274.00
2023-04-22T00:54:34.390Z,97278.00
2023-04-22T00:54:44.390Z,97278.00
2023-04-22T00:54:54.477Z,97276.00
2023-04-22T00:55:04.518Z,97276.00
2023-04-22T00:55:14.522Z,97274.00
2023-04-22T00:55:24.531Z,97278.00
2023-04-22T00:55:34.550Z,97276.00
2023-04-22T00:55:44.556Z,97276.00
2023-04-22T00:55:54.587Z,97276.00
2023-04-22T00:56:04.604Z,97276.00
2023-04-22T00:56:14.616Z,97278.00
2023-04-22T00:56:24.633Z,97274.00
2023-04-22T00:56:34.656Z,97276.00
2023-04-22T00:56:44.661Z,97274.00
2023-04-22T00:56:54.780Z,97272.00
2023-04-22T00:57:04.818Z,97274.00
2023-04-22T00:57:14.837Z,97274.00
2023-04-22T00:57:24.831Z,97276.00
2023-04-22T00:57:35.117Z,97274.00
2023-04-22T00:57:45.122Z,97274.00
2023-04-22T00:57:55.258Z,97274.00
2023-04-22T00:58:05.521Z,97270.00
2023-04-22T00:58:15.519Z,97272.00
2023-04-22T00:58:25.529Z,97272.00
2023-04-22T00:58:35.525Z,97274.00
2023-04-22T00:58:45.543Z,97274.00
2023-04-22T00:58:55.587Z,97274.00
2023-04-22T00:59:05.579Z,97274.00
2023-04-22T00:59:15.772Z,97274.00
2023-04-22T00:59:25.748Z,97276.00
2023-04-22T00:59:35.758Z,97274.00
2023-04-22T00:59:46.020Z,97276.00
2023-04-22T00:59:56.070Z,97272.00
2023-04-22T01:00:06.062Z,97276.00
2023-04-22T01:00:16.481Z,97274.00
2023-04-22T01:00:26.476Z,97274.00
2023-04-22T01:00:36.606Z,97274.00
2023-04-22T01:00:46.856Z,97274.00
2023-04-22T01:00:57.023Z,97274.00
2023-04-22T01:01:07.048Z,97274.00
2023-04-22T01:01:17.466Z,97274.00
2023-04-22T01:01:27.481Z,97276.00
2023-04-22T01:01:37.433Z,97274.00
2023-04-22T01:01:47.455Z,97274.00
2023-04-22T01:01:57.486Z,97274.00
2023-04-22T01:02:07.638Z,97274.00
2023-04-22T01:02:17.569Z,97274.00
2023-04-22T01:02:27.720Z,97274.00
2023-04-22T01:02:37.810Z,97274.00
2023-04-22T01:02:48.000Z,97274.00
2023-04-22T01:02:58.364Z,97272.00
2023-04-22T01:03:08.392Z,97272.00
2023-04-22T01:03:18.512Z,97270.00
2023-04-22T01:03:28.816Z,97272.00
2023-04-22T01:03:38.981Z,97272.00
2023-04-22T01:03:48.947Z,97272.00
2023-04-22T01:03:58.922Z,97272.00
2023-04-22T01:04:09.154Z,97272.00
2023-04-22T01:04:19.052Z,97272.00
2023-04-22T01:04:28.999Z,97272.00
2023-04-22T01:04:39.018Z,97272.00
2023-04-22T01:04:49.019Z,97272.00
2023-04-22T01:04:59.023Z,97272.00
2023-04-22T01:05:09.024Z,97272.00
2023-04-22T01:05:19.028Z,97276.00
2023-04-22T01:05:29.034Z,97274.00
2023-04-22T01:05:39.039Z,97274.00
2023-04-22T01:05:49.044Z,97272.00
2023-04-22T01:05:59.065Z,97274.00
2023-04-22T01:06:09.065Z,97272.00
2023-04-22T01:06:19.059Z,97270.00
2023-04-22T01:06:29.066Z,97270.00
2023-04-22T01:06:39.211Z,97270.00
2023-04-22T01:06:49.206Z,97270.00
2023-04-22T01:06:59.463Z,97268.00
2023-04-22T01:07:09.470Z,97272.00
2023-04-22T01:07:19.586Z,97266.00
2023-04-22T01:07:29.849Z,97268.00
2023-04-22T01:07:39.922Z,97266.00
2023-04-22T01:07:49.917Z,97270.00
2023-04-22T01:08:00.293Z,97268.00
2023-04-22T01:08:10.300Z,97268.00
2023-04-22T01:08:20.335Z,97270.00
2023-04-22T01:08:30.335Z,97268.00
2023-04-22T01:08:40.392Z,97270.00
2023-04-22T01:08:50.410Z,97268.00
2023-04-22T01:09:00.496Z,97268.00
2023-04-22T01:09:10.495Z,97266.00
2023-04-22T01:09:20.662Z,97268.00
2023-04-22T01:09:30.649Z,97270.00
2023-04-22T01:09:41.423Z,97270.00
2023-04-22T01:09:50.913Z,97270.00
2023-04-22T01:10:01.095Z,97270.00
2023-04-22T01:10:11.371Z,97270.00
2023-04-22T01:10:21.367Z,97270.00
2023-04-22T01:10:31.377Z,97270.00
2023-04-22T01:10:41.752Z,97270.00
2023-04-22T01:10:51.753Z,97270.00
2023-04-22T01:11:01.756Z,97268.00
2023-04-22T01:11:11.788Z,97270.00
2023-04-22T01:11:21.802Z,97272.00
2023-04-22T01:11:31.799Z,97270.00
2023-04-22T01:11:41.927Z,97270.00
2023-04-22T01:11:51.946Z,97268.00
2023-04-22T01:12:01.946Z,97274.00
2023-04-22T01:12:11.946Z,97272.00
2023-04-22T01:12:22.191Z,97274.00
2023-04-22T01:12:32.266Z,97274.00
2023-04-22T01:12:42.257Z,97272.00
2023-04-22T01:12:52.266Z,97272.00
2023-04-22T01:13:02.321Z,97270.00
2023-04-22T01:13:12.432Z,97270.00
2023-04-22T01:13:22.423Z,97272.00
2023-04-22T01:13:32.476Z,97272.00
2023-04-22T01:13:42.496Z,97270.00
2023-04-22T01:13:52.489Z,97270.00
2023-04-22T01:14:02.493Z,97270.00
2023-04-22T01:14:12.610Z,97270.00
2023-04-22T01:14:22.611Z,97270.00
2023-04-22T01:14:32.702Z,97270.00
2023-04-22T01:14:42.680Z,97270.00
2023-04-22T01:14:52.722Z,97270.00
2023-04-22T01:15:04.667Z,97270.00
2023-04-22T01:15:12.819Z,97272.00
2023-04-22T01:15:22.833Z,97270.00
2023-04-22T01:15:32.987Z,97272.00
2023-04-22T01:15:42.984Z,97272.00
2023-04-22T01:15:53.049Z,97272.00
2023-04-22T01:16:03.073Z,97272.00
2023-04-22T01:16:13.118Z,97272.00
2023-04-22T01:16:23.207Z,97270.00
2023-04-22T01:16:33.161Z,97270.00
2023-04-22T01:16:43.251Z,97270.00
2023-04-22T01:16:53.325Z,97270.00
2023-04-22T01:17:03.571Z,97272.00
2023-04-22T01:17:13.399Z,97272.00
2023-04-22T01:17:23.550Z,97272.00
2023-04-22T01:17:33.633Z,97272.00
2023-04-22T01:17:43.641Z,97270.00
2023-04-22T01:17:53.739Z,97274.00
2023-04-22T01:18:03.822Z,97272.00
2023-04-22T01:18:13.844Z,97274.00
2023-04-22T01:18:24.005Z,97272.00
2023-04-22T01:18:33.999Z,97274.00
2023-04-22T01:18:43.997Z,97272.00
2023-04-22T01:18:53.994Z,97274.00
2023-04-22T01:19:03.999Z,97274.00
2023-04-22T01:19:14.003Z,97272.00
2023-04-22T01:19:24.012Z,97274.00
2023-04-22T01:19:34.040Z,97274.00
2023-04-22T01:19:44.278Z,97276.00
2023-04-22T01:19:54.093Z,97276.00
2023-04-22T01:20:04.608Z,97276.00
2023-04-22T01:20:14.504Z,97276.00
2023-04-22T01:20:24.666Z,97276.00
2023-04-22T01:20:34.952Z,97274.00
2023-04-22T01:20:44.966Z,97274.00
2023-04-22T01:20:54.999Z,97274.00
2023-04-22T01:21:05.062Z,97274.00
2023-04-22T01:21:15.055Z,97276.00
2023-04-22T01:21:25.184Z,97276.00
2023-04-22T01:21:35.190Z,97274.00
2023-04-22T01:21:45.311Z,97274.00
2023-04-22T01:21:55.332Z,97274.00
2023-04-22T01:22:05.327Z,97274.00
2023-04-22T01:22:15.466Z,97274.00
2023-04-22T01:22:25.515Z,97274.00
2023-04-22T01:22:35.501Z,97272.00
2023-04-22T01:22:45.540Z,97270.00
2023-04-22T01:22:55.557Z,97272.00
2023-04-22T01:23:05.606Z,97272.00
2023-04-22T01:23:15.628Z,97272.00
2023-04-22T01:23:25.658Z,97272.00
2023-04-22T01:23:35.657Z,97272.00
2023-04-22T01:23:45.683Z,97272.00
2023-04-22T01:23:55.685Z,97272.00
2023-04-22T01:24:05.722Z,97274.00
2023-04-22T01:24:15.737Z,97272.00
2023-04-22T01:24:25.749Z,97274.00
2023-04-22T01:24:35.753Z,97272.00
2023-04-22T01:24:45.784Z,97272.00
2023-04-22T01:24:55.786Z,97272.00
2023-04-22T01:25:05.863Z,97272.00
2023-04-22T01:25:15.864Z,97272.00
2023-04-22T01:25:25.956Z,97272.00
2023-04-22T01:25:35.944Z,97274.00
2023-04-22T01:25:45.948Z,97272.00
2023-04-22T01:25:55.956Z,97272.00
2023-04-22T01:26:06.074Z,97274.00
2023-04-22T01:26:16.355Z,97274.00
2023-04-22T01:26:26.368Z,97276.00
2023-04-22T01:26:36.381Z,97274.00
2023-04-22T01:26:46.382Z,97276.00
2023-04-22T01:26:56.394Z,97276.00
2023-04-22T01:27:06.399Z,97274.00
2023-04-22T01:27:16.395Z,97276.00
2023-04-22T01:27:26.398Z,97276.00
2023-04-22T01:27:36.406Z,97276.00
2023-04-22T01:27:46.558Z,97278.00
2023-04-22T01:27:56.556Z,97276.00
2023-04-22T01:28:06.568Z,97276.00
2023-04-22T01:28:16.596Z,97276.00
2023-04-22T01:28:26.671Z,97276.00
2023-04-22T01:28:36.675Z,97276.00
2023-04-22T01:28:46.677Z,97278.00
2023-04-22T01:28:56.682Z,97276.00
2023-04-22T01:29:06.675Z,97276.00
2023-04-22T01:29:16.694Z,97276.00
2023-04-22T01:29:26.705Z,97274.00
2023-04-22T01:29:36.753Z,97274.00
2023-04-22T01:29:46.778Z,97274.00
2023-04-22T01:29:56.790Z,97276.00
2023-04-22T01:30:06.791Z,97276.00
2023-04-22T01:30:16.792Z,97276.00
2023-04-22T01:30:26.804Z,97274.00
2023-04-22T01:30:36.810Z,97276.00
2023-04-22T01:30:46.831Z,97272.00
2023-04-22T01:30:56.841Z,97276.00
2023-04-22T01:31:06.891Z,97274.00
2023-04-22T01:31:16.876Z,97272.00
2023-04-22T01:31:26.881Z,97274.00
2023-04-22T01:31:36.996Z,97274.00
2023-04-22T01:31:47.022Z,97276.00
2023-04-22T01:31:57.026Z,97274.00
2023-04-22T01:32:07.217Z,97274.00
2023-04-22T01:32:17.290Z,97276.00
2023-04-22T01:32:27.319Z,97274.00
2023-04-22T01:32:37.486Z,97276.00
2023-04-22T01:32:47.521Z,97276.00
2023-04-22T01:32:57.609Z,97272.00
2023-04-22T01:33:07.822Z,97276.00
2023-04-22T01:33:17.881Z,97276.00
2023-04-22T01:33:27.776Z,97276.00
2023-04-22T01:33:37.850Z,97276.00
2023-04-22T01:33:47.852Z,97276.00
2023-04-22T01:33:57.916Z,97274.00
2023-04-22T01:34:07.924Z,97276.00
2023-04-22T01:34:17.932Z,97274.00
2023-04-22T01:34:27.936Z,97276.00
2023-04-22T01:34:37.968Z,97276.00
2023-04-22T01:34:47.970Z,97276.00
2023-04-22T01:34:58.024Z,97274.00
2023-04-22T01:35:08.012Z,97274.00
2023-04-22T01:35:18.133Z,97276.00
2023-04-22T01:35:28.158Z,97276.00
2023-04-22T01:35:38.211Z,97276.00
2023-04-22T01:35:48.281Z,97276.00
2023-04-22T01:35:58.557Z,97276.00
2023-04-22T01:36:09.790Z,97274.00
2023-04-22T01:36:18.685Z,97276.00
2023-04-22T01:36:28.682Z,97276.00
2023-04-22T01:36:38.824Z,97278.00
2023-04-22T01:36:48.813Z,97274.00
2023-04-22T01:36:58.809Z,97278.00
2023-04-22T01:37:08.810Z,97274.00
2023-04-22T01:37:18.940Z,97279.00
2023-04-22T01:37:28.937Z,97276.00
2023-04-22T01:37:39.066Z,97278.00
2023-04-22T01:37:49.081Z,97278.00
2023-04-22T01:37:59.085Z,97274.00
2023-04-22T01:38:09.091Z,97278.00
2023-04-22T01:38:19.256Z,97279.00
2023-04-22T01:38:29.252Z,97278.00
2023-04-22T01:38:39.383Z,97279.00
2023-04-22T01:38:49.658Z,97278.00
2023-04-22T01:38:59.668Z,97279.00
2023-04-22T01:39:09.686Z,97279.00
2023-04-22T01:39:19.718Z,97278.00
2023-04-22T01:39:29.788Z,97281.00
2023-04-22T01:39:40.061Z,97281.00
2023-04-22T01:39:49.830Z,97281.00
2023-04-22T01:39:59.877Z,97279.00
2023-04-22T01:40:09.932Z,97281.00
2023-04-22T01:40:19.940Z,97279.00
2023-04-22T01:40:30.011Z,97279.00
2023-04-22T01:40:40.025Z,97281.00
2023-04-22T01:40:50.073Z,97281.00
2023-04-22T01:41:00.060Z,97281.00
2023-04-22T01:41:10.088Z,97283.00
2023-04-22T01:41:20.103Z,97283.00
2023-04-22T01:41:30.160Z,97283.00
2023-04-22T01:41:40.193Z,97283.00
2023-04-22T01:41:50.213Z,97285.00
2023-04-22T01:42:00.223Z,97283.00
2023-04-22T01:42:10.264Z,97281.00
2023-04-22T01:42:20.272Z,97283.00
2023-04-22T01:42:30.316Z,97281.00
2023-04-22T01:42:40.311Z,97283.00
2023-04-22T01:42:50.311Z,97281.00
2023-04-22T01:43:00.321Z,97285.00
2023-04-22T01:43:10.369Z,97281.00
2023-04-22T01:43:20.369Z,97281.00
2023-04-22T01:43:30.384Z,97285.00
2023-04-22T01:43:40.507Z,97285.00
2023-04-22T01:43:50.504Z,97285.00
2023-04-22T01:44:00.778Z,97283.00
2023-04-22T01:44:10.767Z,97285.00
2023-04-22T01:44:20.770Z,97285.00
2023-04-22T01:44:30.797Z,97283.00
2023-04-22T01:44:40.797Z,97285.00
2023-04-22T01:44:50.843Z,97285.00
2023-04-22T01:45:00.830Z,97285.00
2023-04-22T01:45:10.856Z,97285.00
2023-04-22T01:45:20.853Z,97287.00
2023-04-22T01:45:30.850Z,97285.00
2023-04-22T01:45:40.943Z,97285.00
2023-04-22T01:45:50.875Z,97285.00
2023-04-22T01:46:00.937Z,97287.00
2023-04-22T01:46:11.016Z,97287.00
2023-04-22T01:46:21.231Z,97287.00
2023-04-22T01:46:31.303Z,97289.00
2023-04-22T01:46:41.287Z,97285.00
2023-04-22T01:46:51.557Z,97287.00
2023-04-22T01:47:01.551Z,97287.00
2023-04-22T01:47:11.608Z,97287.00
2023-04-22T01:47:21.611Z,97289.00
2023-04-22T01:47:31.635Z,97287.00
2023-04-22T01:47:41.671Z,97289.00
2023-04-22T01:47:51.751Z,97291.00
2023-04-22T01:48:01.802Z,97289.00
2023-04-22T01:48:11.807Z,97291.00
2023-04-22T01:48:21.884Z,97291.00
2023-04-22T01:48:32.177Z,97289.00
2023-04-22T01:48:42.198Z,97289.00
2023-04-22T01:48:52.202Z,97291.00
2023-04-22T01:49:02.211Z,97291.00
2023-04-22T01:49:12.236Z,97291.00
2023-04-22T01:49:22.410Z,97291.00
2023-04-22T01:49:32.390Z,97291.00
2023-04-22T01:49:42.613Z,97293.00
2023-04-22T01:49:52.509Z,97293.00
2023-04-22T01:50:02.563Z,97291.00
2023-04-22T01:50:12.832Z,97293.00
2023-04-22T01:50:22.834Z,97293.00
2023-04-22T01:50:32.837Z,97293.00
2023-04-22T01:50:42.899Z,97291.00
2023-04-22T01:50:52.912Z,97293.00
2023-04-22T01:51:02.913Z,97293.00
2023-04-22T01:51:12.967Z,97291.00
2023-04-22T01:51:23.013Z,97293.00
2023-04-22T01:51:33.040Z,97293.00
2023-04-22T01:51:43.124Z,97291.00
2023-04-22T01:51:53.127Z,97293.00
2023-04-22T01:52:03.333Z,97295.00
2023-04-22T01:52:13.352Z,97293.00
2023-04-22T01:52:23.379Z,97293.00
2023-04-22T01:52:33.382Z,97293.00
2023-04-22T01:52:43.411Z,97293.00
2023-04-22T01:52:53.427Z,97293.00
2023-04-22T01:53:03.600Z,97293.00
2023-04-22T01:53:13.619Z,97295.00
2023-04-22T01:53:23.625Z,97295.00
2023-04-22T01:53:33.629Z,97297.00
2023-04-22T01:53:43.655Z,97295.00
2023-04-22T01:53:53.666Z,97295.00
2023-04-22T01:54:03.731Z,97295.00
2023-04-22T01:54:13.740Z,97293.00
2023-04-22T01:54:23.741Z,97297.00
2023-04-22T01:54:33.750Z,97295.00
2023-04-22T01:54:43.794Z,97297.00
2023-04-22T01:54:53.787Z,97297.00
2023-04-22T01:55:04.024Z,97297.00
2023-04-22T01:55:13.909Z,97299.00
2023-04-22T01:55:24.036Z,97299.00
2023-04-22T01:55:34.047Z,97295.00
2023-04-22T01:55:44.165Z,97297.00
2023-04-22T01:55:54.168Z,97299.00
2023-04-22T01:56:04.183Z,97299.00
2023-04-22T01:56:14.199Z,97297.00
2023-04-22T01:56:24.196Z,97297.00
2023-04-22T01:56:34.206Z,97297.00
2023-04-22T01:56:44.206Z,97297.00
2023-04-22T01:56:54.222Z,97295.00
2023-04-22T01:57:04.235Z,97297.00
2023-04-22T01:57:14.423Z,97295.00
2023-04-22T01:57:24.306Z,97295.00
2023-04-22T01:57:34.312Z,97297.00
2023-04-22T01:57:44.402Z,97297.00
2023-04-22T01:57:54.396Z,97297.00
2023-04-22T01:58:04.526Z,97297.00